createdAt,value
2023-04-17T00:02:16.909Z,9.99
2023-04-17T00:05:23.161Z,9.93
2023-04-17T00:08:25.437Z,9.99
2023-04-17T00:11:27.543Z,9.82
2023-04-17T00:14:29.698Z,9.75
2023-04-17T00:17:31.915Z,9.66
2023-04-17T00:20:34.214Z,9.71
2023-04-17T00:23:36.193Z,9.57
2023-04-17T00:26:38.249Z,9.71
2023-04-17T00:29:40.346Z,9.57
2023-04-17T00:32:42.421Z,9.47
2023-04-17T00:35:44.627Z,9.58
2023-04-17T00:38:46.731Z,9.54
2023-04-17T00:41:48.846Z,9.55
2023-04-17T00:44:50.917Z,9.44
2023-04-17T00:47:53.578Z,9.52
2023-04-17T00:51:02.368Z,9.37
2023-04-17T00:54:04.851Z,9.25
2023-04-17T00:57:07.151Z,9.28
2023-04-17T01:00:10.581Z,9.16
2023-04-17T01:03:13.103Z,9.28
2023-04-17T01:06:15.609Z,9.25
2023-04-17T01:09:17.855Z,9.24
2023-04-17T01:12:22.632Z,9.33
2023-04-17T01:15:24.839Z,9.15
2023-04-17T01:18:27.152Z,9.11
2023-04-17T01:21:29.313Z,9.20
2023-04-17T01:24:31.393Z,9.06
2023-04-17T01:27:35.293Z,9.15
2023-04-17T01:30:37.372Z,9.21
2023-04-17T01:33:39.487Z,9.11
2023-04-17T01:36:43.924Z,9.06
2023-04-17T01:39:46.288Z,9.14
2023-04-17T01:42:48.358Z,9.08
2023-04-17T01:45:50.407Z,8.98
2023-04-17T01:48:52.679Z,9.05
2023-04-17T01:51:54.749Z,8.91
2023-04-17T01:54:56.755Z,8.97
2023-04-17T01:57:58.864Z,9.03
2023-04-17T02:01:01.074Z,9.05
2023-04-17T02:04:03.410Z,8.91
2023-04-17T02:07:05.681Z,8.97
2023-04-17T02:10:10.457Z,8.91
2023-04-17T02:13:12.628Z,8.85
2023-04-17T02:16:14.833Z,8.85
2023-04-17T02:19:30.919Z,8.98
2023-04-17T02:22:41.147Z,8.83
2023-04-17T02:25:43.503Z,8.88
2023-04-17T02:28:50.152Z,8.97
2023-04-17T02:31:57.106Z,8.86
2023-04-17T02:35:01.058Z,8.87
2023-04-17T02:38:03.244Z,8.93
2023-04-17T02:41:06.184Z,8.97
2023-04-17T02:44:08.444Z,8.79
2023-04-17T02:47:13.056Z,8.96
2023-04-17T02:50:23.829Z,8.91
2023-04-17T02:53:52.354Z,8.85
2023-04-17T02:57:01.215Z,8.77
2023-04-17T03:00:26.084Z,8.73
2023-04-17T03:03:31.226Z,8.83
2023-04-17T03:06:33.704Z,8.59
2023-04-17T03:09:36.742Z,8.72
2023-04-17T03:12:39.337Z,8.63
2023-04-17T03:15:41.405Z,8.70
2023-04-17T03:18:43.565Z,8.69
2023-04-17T03:21:46.250Z,8.74
2023-04-17T03:24:48.632Z,8.68
2023-04-17T03:27:50.856Z,8.57
2023-04-17T03:30:54.959Z,8.65
2023-04-17T03:34:04.496Z,8.55
2023-04-17T03:37:06.499Z,8.52
2023-04-17T03:40:08.960Z,8.54
2023-04-17T03:43:11.355Z,8.63
2023-04-17T03:46:13.594Z,8.57
2023-04-17T03:49:15.922Z,8.57
2023-04-17T03:52:17.931Z,8.65
2023-04-17T03:55:19.994Z,8.62
2023-04-17T03:58:22.332Z,8.54
2023-04-17T04:01:28.293Z,8.62
2023-04-17T04:04:30.806Z,8.66
2023-04-17T04:07:36.721Z,8.61
2023-04-17T04:10:38.845Z,8.65
2023-04-17T04:13:41.202Z,8.65
2023-04-17T04:16:45.718Z,8.56
2023-04-17T04:19:48.135Z,8.52
2023-04-17T04:22:50.760Z,8.52
2023-04-17T04:25:52.647Z,8.59
2023-04-17T04:28:54.848Z,8.58
2023-04-17T04:31:59.886Z,8.57
2023-04-17T04:35:05.818Z,8.61
2023-04-17T04:38:19.719Z,8.54
2023-04-17T04:41:25.807Z,8.56
2023-04-17T04:44:28.011Z,8.66
2023-04-17T04:47:30.337Z,8.70
2023-04-17T04:50:32.680Z,8.49
2023-04-17T04:53:37.735Z,8.68
2023-04-17T04:56:45.022Z,8.66
2023-04-17T04:59:47.135Z,8.67
2023-04-17T05:02:49.394Z,8.79
2023-04-17T05:05:51.576Z,8.84
2023-04-17T05:08:53.740Z,8.74
2023-04-17T05:11:55.893Z,8.64
2023-04-17T05:14:58.015Z,8.64
2023-04-17T05:18:00.028Z,8.66
2023-04-17T05:21:02.501Z,8.81
2023-04-17T05:24:04.555Z,8.77
2023-04-17T05:27:06.538Z,8.75
2023-04-17T05:30:09.401Z,8.72
2023-04-17T05:33:11.617Z,8.87
2023-04-17T05:36:13.764Z,8.83
2023-04-17T05:39:15.907Z,8.61
2023-04-17T05:42:18.145Z,8.74
2023-04-17T05:45:20.211Z,8.90
2023-04-17T05:48:22.839Z,8.70
2023-04-17T05:51:25.137Z,8.84
2023-04-17T05:54:30.449Z,8.87
2023-04-17T05:57:34.503Z,9.01
2023-04-17T06:00:36.946Z,9.07
2023-04-17T06:03:39.276Z,9.20
2023-04-17T06:06:41.531Z,9.14
2023-04-17T06:09:43.543Z,9.13
2023-04-17T06:12:46.754Z,9.14
2023-04-17T06:15:49.770Z,9.21
2023-04-17T06:18:51.827Z,9.28
2023-04-17T06:21:54.017Z,9.46
2023-04-17T06:24:56.119Z,9.69
2023-04-17T06:28:01.938Z,9.63
2023-04-17T06:31:06.754Z,9.80
2023-04-17T06:34:09.675Z,9.82
2023-04-17T06:37:11.871Z,9.81
2023-04-17T06:40:14.136Z,9.82
2023-04-17T06:43:16.772Z,9.80
2023-04-17T06:46:18.941Z,9.88
2023-04-17T06:49:21.384Z,10.08
2023-04-17T06:52:23.925Z,9.71
2023-04-17T06:55:27.099Z,10.05
2023-04-17T06:58:29.357Z,9.94
2023-04-17T07:01:31.567Z,10.06
2023-04-17T07:04:33.825Z,9.94
2023-04-17T07:07:36.521Z,9.95
2023-04-17T07:10:38.588Z,9.89
2023-04-17T07:13:40.646Z,9.88
2023-04-17T07:16:42.825Z,10.05
2023-04-17T07:19:45.871Z,9.94
2023-04-17T07:22:49.933Z,10.10
2023-04-17T07:25:54.518Z,10.19
2023-04-17T07:28:56.403Z,10.25
2023-04-17T07:31:58.806Z,10.72
2023-04-17T07:35:00.988Z,10.78
2023-04-17T07:38:04.345Z,10.80
2023-04-17T07:41:06.853Z,10.84
2023-04-17T07:44:09.085Z,10.58
2023-04-17T07:47:11.209Z,10.77
2023-04-17T07:50:13.606Z,10.70
2023-04-17T07:53:15.777Z,10.63
2023-04-17T07:56:17.758Z,10.63
2023-04-17T07:59:19.984Z,10.57
2023-04-17T08:02:22.969Z,10.82
2023-04-17T08:05:25.582Z,10.97
2023-04-17T08:08:27.641Z,11.23
2023-04-17T08:11:29.635Z,11.77
2023-04-17T08:14:32.055Z,12.20
2023-04-17T08:17:35.479Z,12.59
2023-04-17T08:20:38.786Z,12.62
2023-04-17T08:23:41.884Z,11.47
2023-04-17T08:26:49.440Z,11.82
2023-04-17T08:30:22.013Z,12.00
2023-04-17T08:33:24.028Z,12.16
2023-04-17T08:36:26.240Z,12.29
2023-04-17T08:39:28.574Z,12.25
2023-04-17T08:42:34.828Z,12.56
2023-04-17T08:45:39.314Z,12.26
2023-04-17T08:48:41.439Z,11.89
2023-04-17T08:51:43.692Z,11.75
2023-04-17T08:54:48.936Z,11.62
2023-04-17T08:57:56.401Z,11.70
2023-04-17T09:01:10.879Z,11.71
2023-04-17T09:04:37.467Z,12.21
2023-04-17T09:07:41.758Z,13.18
2023-04-17T09:10:46.164Z,14.07
2023-04-17T09:13:48.186Z,14.09
2023-04-17T09:16:54.855Z,15.31
2023-04-17T09:20:09.297Z,14.70
2023-04-17T09:23:11.689Z,13.88
2023-04-17T09:26:15.375Z,14.48
2023-04-17T09:29:17.771Z,14.70
2023-04-17T09:32:19.932Z,13.65
2023-04-17T09:35:28.210Z,13.40
2023-04-17T09:38:40.827Z,13.14
2023-04-17T09:41:42.830Z,13.71
2023-04-17T09:44:45.100Z,14.98
2023-04-17T09:47:48.407Z,15.07
2023-04-17T09:50:50.828Z,15.33
2023-04-17T09:53:54.169Z,15.63
2023-04-17T09:56:56.382Z,15.84
2023-04-17T10:00:01.409Z,15.53
2023-04-17T10:03:03.650Z,15.29
2023-04-17T10:06:06.626Z,14.64
2023-04-17T10:09:08.711Z,14.16
2023-04-17T10:12:14.655Z,14.65
2023-04-17T10:15:16.860Z,14.90
2023-04-17T10:18:23.688Z,14.70
2023-04-17T10:21:26.638Z,14.22
2023-04-17T10:24:29.170Z,14.27
2023-04-17T10:27:33.954Z,14.41
2023-04-17T10:30:55.808Z,15.99
2023-04-17T10:33:58.073Z,16.40
2023-04-17T10:37:01.387Z,17.11
2023-04-17T10:40:09.787Z,19.15
2023-04-17T10:43:14.825Z,20.44
2023-04-17T10:46:16.799Z,20.05
2023-04-17T10:49:21.622Z,19.11
2023-04-17T10:52:32.719Z,17.36
2023-04-17T10:55:48.943Z,16.54
2023-04-17T10:58:59.660Z,15.85
2023-04-17T11:02:04.381Z,16.50
2023-04-17T11:05:07.452Z,16.31
2023-04-17T11:08:10.082Z,14.59
2023-04-17T11:11:12.065Z,14.16
2023-04-17T11:14:16.519Z,14.37
2023-04-17T11:17:21.619Z,13.91
2023-04-17T11:20:32.202Z,16.06
2023-04-17T11:23:34.684Z,17.90
2023-04-17T11:26:47.737Z,17.17
2023-04-17T11:29:49.699Z,16.29
2023-04-17T11:32:52.155Z,15.22
2023-04-17T11:35:54.873Z,14.59
2023-04-17T11:38:57.379Z,14.37
2023-04-17T11:42:00.576Z,14.09
2023-04-17T11:45:07.591Z,13.59
2023-04-17T11:48:11.533Z,13.81
2023-04-17T11:51:18.306Z,14.43
2023-04-17T11:54:30.914Z,14.37
2023-04-17T11:57:42.330Z,13.94
2023-04-17T12:00:44.495Z,13.42
2023-04-17T12:03:49.901Z,13.38
2023-04-17T12:06:52.624Z,13.26
2023-04-17T12:09:56.996Z,12.96
2023-04-17T12:12:59.076Z,12.85
2023-04-17T12:16:01.180Z,12.93
2023-04-17T12:19:03.390Z,12.99
2023-04-17T12:22:05.552Z,13.06
2023-04-17T12:25:07.886Z,13.04
2023-04-17T12:28:09.925Z,13.21
2023-04-17T12:31:12.403Z,13.35
2023-04-17T12:34:15.083Z,13.33
2023-04-17T12:37:18.935Z,13.13
2023-04-17T12:40:24.671Z,13.39
2023-04-17T12:43:26.752Z,14.18
2023-04-17T12:46:28.796Z,14.29
2023-04-17T12:49:30.848Z,14.38
2023-04-17T12:52:33.061Z,14.69
2023-04-17T12:55:38.590Z,15.36
2023-04-17T12:58:40.770Z,15.70
2023-04-17T13:01:42.789Z,15.65
2023-04-17T13:04:44.720Z,15.55
2023-04-17T13:07:46.716Z,15.08
2023-04-17T13:10:48.706Z,15.10
2023-04-17T13:13:50.768Z,15.39
2023-04-17T13:16:53.905Z,14.49
2023-04-17T13:19:56.449Z,13.73
2023-04-17T13:22:58.949Z,13.73
2023-04-17T13:26:01.176Z,14.23
2023-04-17T13:29:03.892Z,14.34
2023-04-17T13:32:06.385Z,14.24
2023-04-17T13:35:09.707Z,14.51
2023-04-17T13:38:11.720Z,14.03
2023-04-17T13:41:13.537Z,14.62
2023-04-17T13:44:16.368Z,14.54
2023-04-17T13:47:18.308Z,14.56
2023-04-17T13:50:20.274Z,14.74
2023-04-17T13:53:22.223Z,14.47
2023-04-17T13:56:24.714Z,14.17
2023-04-17T13:59:26.725Z,14.22
2023-04-17T14:02:29.049Z,14.16
2023-04-17T14:05:31.744Z,14.53
2023-04-17T14:08:33.882Z,14.66
2023-04-17T14:11:35.904Z,14.48
2023-04-17T14:14:39.018Z,14.93
2023-04-17T14:17:43.268Z,14.90
2023-04-17T14:20:45.502Z,14.48
2023-04-17T14:23:48.830Z,14.28
2023-04-17T14:26:50.688Z,13.98
2023-04-17T14:29:52.500Z,13.82
2023-04-17T14:32:54.506Z,13.80
2023-04-17T14:35:59.212Z,13.79
2023-04-17T14:39:01.156Z,13.61
2023-04-17T14:42:03.339Z,13.48
2023-04-17T14:45:06.274Z,13.36
2023-04-17T14:48:08.164Z,13.56
2023-04-17T14:51:14.065Z,13.75
2023-04-17T14:54:16.047Z,13.32
2023-04-17T14:57:17.958Z,13.59
2023-04-17T15:00:20.927Z,13.40
2023-04-17T15:03:22.941Z,13.09
2023-04-17T15:06:25.038Z,12.96
2023-04-17T15:09:27.052Z,12.91
2023-04-17T15:12:29.493Z,12.84
2023-04-17T15:15:31.463Z,12.60
2023-04-17T15:18:34.703Z,12.67
2023-04-17T15:21:37.324Z,12.51
2023-04-17T15:24:39.428Z,12.50
2023-04-17T15:27:41.227Z,12.37
2023-04-17T15:30:43.098Z,12.41
2023-04-17T15:33:47.379Z,12.21
2023-04-17T15:36:49.350Z,11.81
2023-04-17T15:39:53.943Z,11.63
2023-04-17T15:42:55.989Z,11.50
2023-04-17T15:45:59.642Z,11.23
2023-04-17T15:49:08.951Z,11.30
2023-04-17T15:52:23.691Z,11.30
2023-04-17T15:55:25.719Z,11.40
2023-04-17T15:58:29.492Z,11.38
2023-04-17T16:01:31.455Z,11.25
2023-04-17T16:04:33.450Z,11.19
2023-04-17T16:07:35.891Z,11.07
2023-04-17T16:10:38.002Z,11.03
2023-04-17T16:13:40.285Z,10.99
2023-04-17T16:16:42.561Z,10.83
2023-04-17T16:19:44.482Z,10.68
2023-04-17T16:22:46.483Z,10.62
2023-04-17T16:25:50.260Z,10.75
2023-04-17T16:28:52.523Z,10.68
2023-04-17T16:31:55.136Z,10.62
2023-04-17T16:34:57.302Z,10.54
2023-04-17T16:38:01.258Z,10.53
2023-04-17T16:41:04.624Z,10.44
2023-04-17T16:44:07.018Z,10.49
2023-04-17T16:47:13.886Z,10.44
2023-04-17T16:50:16.345Z,10.44
2023-04-17T16:53:18.340Z,10.47
2023-04-17T16:56:20.241Z,10.48
2023-04-17T16:59:22.929Z,10.40
2023-04-17T17:02:25.100Z,10.38
2023-04-17T17:05:27.097Z,10.44
2023-04-17T17:08:29.578Z,10.43
2023-04-17T17:11:31.704Z,10.48
2023-04-17T17:14:33.638Z,10.38
2023-04-17T17:17:35.542Z,10.23
2023-04-17T17:20:37.613Z,10.18
2023-04-17T17:23:39.698Z,10.06
2023-04-17T17:26:41.761Z,9.97
2023-04-17T17:29:43.696Z,9.90
2023-04-17T17:32:45.836Z,9.83
2023-04-17T17:35:48.576Z,9.67
2023-04-17T17:38:55.933Z,9.63
2023-04-17T17:41:58.175Z,9.63
2023-04-17T17:45:00.179Z,9.73
2023-04-17T17:48:02.143Z,9.62
2023-04-17T17:51:04.214Z,9.59
2023-04-17T17:54:06.400Z,9.61
2023-04-17T17:57:08.683Z,9.63
2023-04-17T18:00:12.216Z,9.58
2023-04-17T18:03:17.512Z,9.61
2023-04-17T18:06:19.680Z,9.60
2023-04-17T18:09:21.581Z,9.55
2023-04-17T18:12:25.130Z,9.49
2023-04-17T18:15:27.354Z,9.51
2023-04-17T18:18:29.603Z,9.46
2023-04-17T18:21:32.317Z,9.48
2023-04-17T18:24:34.995Z,9.47
2023-04-17T18:27:37.415Z,9.38
2023-04-17T18:30:39.484Z,9.43
2023-04-17T18:33:45.456Z,9.49
2023-04-17T18:36:47.670Z,9.38
2023-04-17T18:39:49.966Z,9.43
2023-04-17T18:42:52.214Z,9.40
2023-04-17T18:45:54.837Z,9.49
2023-04-17T18:48:57.846Z,9.49
2023-04-17T18:51:59.966Z,9.53
2023-04-17T18:55:02.034Z,9.45
2023-04-17T18:58:06.016Z,9.41
2023-04-17T19:01:11.268Z,9.46
2023-04-17T19:04:13.594Z,9.49
2023-04-17T19:07:15.971Z,9.37
2023-04-17T19:10:18.520Z,9.32
2023-04-17T19:13:20.821Z,9.41
2023-04-17T19:16:24.092Z,9.37
2023-04-17T19:19:27.692Z,9.33
2023-04-17T19:22:30.141Z,9.28
2023-04-17T19:25:32.346Z,9.34
2023-04-17T19:28:35.851Z,9.29
2023-04-17T19:31:40.419Z,9.26
2023-04-17T19:34:43.713Z,9.24
2023-04-17T19:37:46.014Z,9.23
2023-04-17T19:41:15.277Z,9.23
2023-04-17T19:44:17.701Z,9.10
2023-04-17T19:47:19.888Z,9.14
2023-04-17T19:50:29.015Z,9.16
2023-04-17T19:53:35.895Z,9.16
2023-04-17T19:56:38.779Z,9.12
2023-04-17T19:59:40.837Z,9.08
2023-04-17T20:02:42.908Z,9.06
2023-04-17T20:05:45.234Z,9.12
2023-04-17T20:08:47.409Z,9.05
2023-04-17T20:11:50.413Z,8.99
2023-04-17T20:14:52.785Z,9.04
2023-04-17T20:17:55.635Z,9.06
2023-04-17T20:20:57.836Z,9.05
2023-04-17T20:24:00.010Z,8.95
2023-04-17T20:27:02.263Z,9.02
2023-04-17T20:30:05.079Z,9.03
2023-04-17T20:33:07.380Z,8.98
2023-04-17T20:36:09.408Z,8.96
2023-04-17T20:39:12.759Z,9.00
2023-04-17T20:42:15.602Z,8.92
2023-04-17T20:45:21.423Z,8.95
2023-04-17T20:48:25.156Z,8.93
2023-04-17T20:51:27.704Z,8.96
2023-04-17T20:54:30.006Z,8.88
2023-04-17T20:57:31.979Z,8.87
2023-04-17T21:00:34.734Z,8.89
2023-04-17T21:03:41.691Z,8.88
2023-04-17T21:06:43.653Z,8.86
2023-04-17T21:09:45.939Z,8.91
2023-04-17T21:12:48.176Z,8.73
2023-04-17T21:15:50.095Z,8.76
2023-04-17T21:18:52.783Z,8.63
2023-04-17T21:21:55.771Z,8.68
2023-04-17T21:24:57.778Z,8.64
2023-04-17T21:27:59.928Z,8.63
2023-04-17T21:31:02.138Z,8.62
2023-04-17T21:34:04.925Z,8.46
2023-04-17T21:37:07.099Z,8.52
2023-04-17T21:40:09.858Z,8.52
2023-04-17T21:43:12.327Z,8.47
2023-04-17T21:47:33.918Z,8.56
2023-04-17T21:50:41.360Z,8.35
2023-04-17T21:53:44.162Z,8.49
2023-04-17T21:56:49.059Z,8.46
2023-04-17T21:59:51.238Z,8.38
2023-04-17T22:02:53.740Z,8.37
2023-04-17T22:05:57.426Z,8.35
2023-04-17T22:08:59.844Z,8.31
2023-04-17T22:12:13.668Z,8.25
2023-04-17T22:15:15.686Z,8.19
2023-04-17T22:18:17.774Z,8.24
2023-04-17T22:21:19.730Z,8.17
2023-04-17T22:24:21.922Z,8.22
2023-04-17T22:27:24.138Z,8.14
2023-04-17T22:30:26.101Z,8.16
2023-04-17T22:33:28.225Z,8.09
2023-04-17T22:36:30.127Z,8.08
2023-04-17T22:39:32.309Z,8.09
2023-04-17T22:42:34.185Z,8.18
2023-04-17T22:45:36.096Z,8.12
2023-04-17T22:48:40.697Z,8.21
2023-04-17T22:51:43.302Z,8.19
2023-04-17T22:54:45.266Z,8.20
2023-04-17T22:57:47.156Z,8.22
2023-04-17T23:00:49.106Z,8.27
2023-04-17T23:03:51.067Z,8.31
2023-04-17T23:06:53.012Z,8.38
2023-04-17T23:09:54.870Z,8.18
2023-04-17T23:12:56.911Z,8.23
2023-04-17T23:16:02.883Z,8.23
2023-04-17T23:19:05.206Z,8.13
2023-04-17T23:22:07.349Z,8.11
2023-04-17T23:25:09.875Z,8.17
2023-04-17T23:28:11.847Z,8.23
2023-04-17T23:31:13.741Z,8.30
2023-04-17T23:34:15.908Z,8.28
2023-04-17T23:37:18.059Z,8.20
2023-04-17T23:40:20.085Z,8.25
2023-04-17T23:43:21.978Z,8.14
2023-04-17T23:46:24.204Z,8.13
2023-04-17T23:49:26.084Z,8.08
2023-04-17T23:52:28.170Z,8.06
2023-04-17T23:55:30.276Z,8.05
2023-04-17T23:58:32.306Z,8.04
